Lowest pressure

Not for real navigation. The accuracy of this data is not assured See disclaimer for more information



ICAO NAME COUNTRY WIND Kt GUST Kt VIS m TEMP/DEW C BARO METAR
SCRM 6 0 9999 1/0 28.64 SCRM 172200Z 16006KT 9999 SCT010 OVC020 01/00 Q0970 NOSIG
BGBW Narsarsuaq Greenland 32 46 9999 5/-6 28.91 BGBW 172150Z AUTO 06032G46KT 9999NDV BKN210/// 05/M06 Q0979
SCGZ 17 28 9999 10/3 29.00 SCGZ 172200Z 25017G28KT 9999 VCSH SCT040 BKN050 10/03 Q0982
NZSP Amundsen-Scott South Pole Stat Antarctica 14 0 9999 -33/0 29.01 NZSP 172150Z 03014KT 9999 DRSN FEW030 M33/ A2901 RMK CLN AIR 03015KT ALL WNDS GRID SDG/HDG
PAAK Atka, Atka Airport AK United States 25 36 1600 6/4 29.02 PAAK 172224Z AUTO 08025G36KT 1 0.75SM RA BR SCT012 BKN025 OVC035 06/04 A2902 RMK AO2 PK WND 08036/22

Show more